ITY32P KATL-KMIA
Flight info
| Callsign | ITY32P |
|---|---|
| Flight time | 1h 24m |
| Altitude | 37000 |
| Route | BANNG3 LUCKK HONID FROGZ4 |
| Aircraft | A320/M-SDE3FGHIRWY/LB1 |
Departure
| Time | 2026-05-01 13:17 |
|---|---|
| Airport | Hartsfield Jackson Atlanta International Airport (KATL) |
Arrival
| Time | 2026-05-01 14:42 |
|---|---|
| Airport | Miami International Airport (KMIA) |
| Time | Latitude | Longitude | Altitude | Speed | Heading |
|---|---|---|---|---|---|
| 2026-05-01 12:59 | 33.63765 | -84.43874 | 1008 ft | 0 kts | 271° |
| 2026-05-01 13:09 | 33.63765 | -84.43848 | 1008 ft | 4 kts | 270° |
| 2026-05-01 13:09 | 33.63766 | -84.43817 | 1008 ft | 4 kts | 262° |
| 2026-05-01 13:09 | 33.63769 | -84.43797 | 1008 ft | 2 kts | 224° |
| 2026-05-01 13:10 | 33.63778 | -84.43789 | 1008 ft | 2 kts | 188° |
| 2026-05-01 13:10 | 33.63789 | -84.43788 | 1008 ft | 2 kts | 181° |
| 2026-05-01 13:10 | 33.63797 | -84.43788 | 1007 ft | 0 kts | 179° |
| 2026-05-01 13:12 | 33.63784 | -84.43788 | 1007 ft | 5 kts | 180° |
| 2026-05-01 13:12 | 33.63741 | -84.43787 | 1007 ft | 5 kts | 180° |
| 2026-05-01 13:13 | 33.63687 | -84.43805 | 1008 ft | 12 kts | 216° |
| 2026-05-01 13:13 | 33.63665 | -84.43921 | 1009 ft | 15 kts | 269° |
| 2026-05-01 13:13 | 33.63665 | -84.44035 | 1009 ft | 13 kts | 270° |
| 2026-05-01 13:13 | 33.63666 | -84.44138 | 1009 ft | 15 kts | 269° |
| 2026-05-01 13:14 | 33.63666 | -84.44292 | 1009 ft | 22 kts | 270° |
| 2026-05-01 13:14 | 33.63665 | -84.44501 | 1009 ft | 27 kts | 270° |
| 2026-05-01 13:14 | 33.63660 | -84.44706 | 1009 ft | 20 kts | 256° |
| 2026-05-01 13:14 | 33.63561 | -84.44783 | 1015 ft | 16 kts | 185° |
| 2026-05-01 13:15 | 33.63484 | -84.44757 | 1020 ft | 9 kts | 135° |
| 2026-05-01 13:15 | 33.63471 | -84.44694 | 1020 ft | 0 kts | 89° |
| 2026-05-01 13:16 | 33.63472 | -84.44540 | 1021 ft | 54 kts | 89° |
| 2026-05-01 13:16 | 33.63474 | -84.43833 | 1022 ft | 115 kts | 90° |
| 2026-05-01 13:16 | 33.63488 | -84.42690 | 1078 ft | 153 kts | 86° |
| 2026-05-01 13:17 | 33.63512 | -84.38756 | 2595 ft | 176 kts | 103° |
| 2026-05-01 13:17 | 33.63079 | -84.37282 | 2895 ft | 199 kts | 109° |
| 2026-05-01 13:18 | 33.62022 | -84.33763 | 3640 ft | 248 kts | 109° |
| 2026-05-01 13:18 | 33.61434 | -84.31776 | 4192 ft | 264 kts | 110° |
| 2026-05-01 13:18 | 33.60742 | -84.29686 | 4911 ft | 274 kts | 122° |
| 2026-05-01 13:18 | 33.59380 | -84.28093 | 5638 ft | 279 kts | 155° |
| 2026-05-01 13:19 | 33.57515 | -84.27594 | 6455 ft | 278 kts | 181° |
| 2026-05-01 13:19 | 33.55567 | -84.27582 | 7280 ft | 281 kts | 183° |
| 2026-05-01 13:19 | 33.51629 | -84.27609 | 8965 ft | 286 kts | 185° |
| 2026-05-01 13:20 | 33.49632 | -84.27625 | 9799 ft | 289 kts | 185° |
| 2026-05-01 13:20 | 33.47634 | -84.27637 | 10552 ft | 292 kts | 186° |
| 2026-05-01 13:20 | 33.45606 | -84.27733 | 11302 ft | 291 kts | 194° |
| 2026-05-01 13:21 | 33.41437 | -84.28888 | 11831 ft | 330 kts | 200° |
| 2026-05-01 13:21 | 33.39134 | -84.29584 | 11985 ft | 352 kts | 199° |
| 2026-05-01 13:21 | 33.36720 | -84.30307 | 12465 ft | 362 kts | 199° |
| 2026-05-01 13:21 | 33.34264 | -84.31027 | 13148 ft | 365 kts | 200° |
| 2026-05-01 13:22 | 33.31786 | -84.31748 | 13851 ft | 368 kts | 200° |
| 2026-05-01 13:22 | 33.29287 | -84.32473 | 14468 ft | 370 kts | 200° |
| 2026-05-01 13:22 | 33.26809 | -84.33194 | 15031 ft | 374 kts | 201° |
| 2026-05-01 13:22 | 33.24264 | -84.33934 | 15588 ft | 378 kts | 201° |
| 2026-05-01 13:23 | 33.21696 | -84.34683 | 16144 ft | 382 kts | 202° |
| 2026-05-01 13:23 | 33.19104 | -84.35442 | 16703 ft | 386 kts | 202° |
| 2026-05-01 13:23 | 33.16483 | -84.36211 | 17249 ft | 389 kts | 203° |
| 2026-05-01 13:23 | 33.13842 | -84.36987 | 17798 ft | 393 kts | 203° |
| 2026-05-01 13:24 | 33.11171 | -84.37770 | 18332 ft | 397 kts | 204° |
| 2026-05-01 13:24 | 33.08474 | -84.38561 | 18812 ft | 400 kts | 204° |
| 2026-05-01 13:24 | 33.05803 | -84.39342 | 19304 ft | 402 kts | 204° |
| 2026-05-01 13:25 | 33.00345 | -84.40925 | 20261 ft | 406 kts | 204° |
| 2026-05-01 13:25 | 32.97588 | -84.41708 | 20732 ft | 410 kts | 201° |
| 2026-05-01 13:25 | 32.94711 | -84.42116 | 21185 ft | 425 kts | 192° |
| 2026-05-01 13:25 | 32.91731 | -84.42082 | 21649 ft | 430 kts | 189° |
| 2026-05-01 13:26 | 32.88733 | -84.42016 | 22077 ft | 432 kts | 189° |
| 2026-05-01 13:26 | 32.85724 | -84.41946 | 22501 ft | 434 kts | 189° |
| 2026-05-01 13:26 | 32.82697 | -84.41877 | 22931 ft | 436 kts | 189° |
| 2026-05-01 13:26 | 32.79703 | -84.41810 | 23327 ft | 437 kts | 189° |
| 2026-05-01 13:27 | 32.76653 | -84.41747 | 23702 ft | 439 kts | 189° |
| 2026-05-01 13:27 | 32.73595 | -84.41686 | 24015 ft | 440 kts | 189° |
| 2026-05-01 13:27 | 32.67442 | -84.41568 | 24633 ft | 444 kts | 189° |
| 2026-05-01 13:28 | 32.61223 | -84.41447 | 25189 ft | 449 kts | 189° |
| 2026-05-01 13:28 | 32.58096 | -84.41389 | 25475 ft | 451 kts | 189° |
| 2026-05-01 13:29 | 32.51835 | -84.41266 | 26015 ft | 455 kts | 189° |
| 2026-05-01 13:29 | 32.45475 | -84.41126 | 26485 ft | 459 kts | 188° |
| 2026-05-01 13:30 | 32.32599 | -84.40863 | 27398 ft | 466 kts | 188° |
| 2026-05-01 13:31 | 32.26144 | -84.40732 | 27940 ft | 466 kts | 188° |
| 2026-05-01 13:31 | 32.16417 | -84.40530 | 28820 ft | 466 kts | 188° |
| 2026-05-01 13:32 | 32.09924 | -84.40408 | 29426 ft | 466 kts | 189° |
| 2026-05-01 13:33 | 32.00247 | -84.40221 | 30362 ft | 465 kts | 189° |
| 2026-05-01 13:33 | 31.93776 | -84.40092 | 30869 ft | 465 kts | 189° |
| 2026-05-01 13:34 | 31.87295 | -84.39967 | 31324 ft | 466 kts | 189° |
| 2026-05-01 13:34 | 31.80812 | -84.39839 | 31862 ft | 465 kts | 189° |
| 2026-05-01 13:35 | 31.74394 | -84.39706 | 32427 ft | 464 kts | 189° |
| 2026-05-01 13:35 | 31.71166 | -84.39642 | 32718 ft | 463 kts | 189° |
| 2026-05-01 13:35 | 31.64732 | -84.39510 | 33274 ft | 462 kts | 189° |
| 2026-05-01 13:36 | 31.61524 | -84.39454 | 33574 ft | 461 kts | 189° |
| 2026-05-01 13:36 | 31.58321 | -84.39399 | 33871 ft | 460 kts | 189° |
| 2026-05-01 13:36 | 31.51925 | -84.39275 | 34376 ft | 459 kts | 189° |
| 2026-05-01 13:37 | 31.48777 | -84.39205 | 34628 ft | 458 kts | 189° |
| 2026-05-01 13:37 | 31.45592 | -84.39128 | 34848 ft | 458 kts | 189° |
| 2026-05-01 13:37 | 31.42409 | -84.39045 | 35085 ft | 457 kts | 189° |
| 2026-05-01 13:37 | 31.39231 | -84.38957 | 35269 ft | 456 kts | 189° |
| 2026-05-01 13:38 | 31.32893 | -84.38836 | 35695 ft | 455 kts | 189° |
| 2026-05-01 13:38 | 31.29729 | -84.38775 | 35901 ft | 454 kts | 189° |
| 2026-05-01 13:38 | 31.26612 | -84.38709 | 36090 ft | 454 kts | 189° |
| 2026-05-01 13:39 | 31.23458 | -84.38638 | 36283 ft | 453 kts | 189° |
| 2026-05-01 13:39 | 31.20304 | -84.38562 | 36475 ft | 453 kts | 189° |
| 2026-05-01 13:39 | 31.17160 | -84.38482 | 36661 ft | 452 kts | 189° |
| 2026-05-01 13:39 | 31.14012 | -84.38398 | 36840 ft | 452 kts | 189° |
| 2026-05-01 13:40 | 31.10872 | -84.38312 | 36964 ft | 451 kts | 189° |
| 2026-05-01 13:40 | 31.04595 | -84.38201 | 37012 ft | 451 kts | 189° |
| 2026-05-01 13:41 | 30.98366 | -84.38101 | 37012 ft | 451 kts | 189° |
| 2026-05-01 13:41 | 30.92094 | -84.38002 | 36996 ft | 451 kts | 189° |
| 2026-05-01 13:42 | 30.85829 | -84.37905 | 36997 ft | 451 kts | 189° |
| 2026-05-01 13:42 | 30.79557 | -84.37831 | 36968 ft | 450 kts | 189° |
| 2026-05-01 13:43 | 30.73327 | -84.37787 | 36974 ft | 451 kts | 189° |
| 2026-05-01 13:43 | 30.67046 | -84.37747 | 36979 ft | 451 kts | 189° |
| 2026-05-01 13:44 | 30.60765 | -84.37709 | 36979 ft | 451 kts | 189° |
| 2026-05-01 13:44 | 30.54485 | -84.37673 | 36984 ft | 452 kts | 189° |
| 2026-05-01 13:45 | 30.48239 | -84.37638 | 36979 ft | 452 kts | 189° |
| 2026-05-01 13:45 | 30.41950 | -84.37604 | 36982 ft | 452 kts | 189° |
| 2026-05-01 13:46 | 30.35655 | -84.37569 | 36989 ft | 452 kts | 189° |
| 2026-05-01 13:46 | 30.29363 | -84.37539 | 37015 ft | 452 kts | 189° |
| 2026-05-01 13:47 | 30.23111 | -84.37532 | 36967 ft | 452 kts | 189° |
| 2026-05-01 13:47 | 30.16823 | -84.37549 | 36981 ft | 452 kts | 189° |
| 2026-05-01 13:48 | 30.10534 | -84.37566 | 36984 ft | 452 kts | 189° |
| 2026-05-01 13:48 | 30.04250 | -84.37587 | 36989 ft | 452 kts | 189° |
| 2026-05-01 13:49 | 29.98009 | -84.37610 | 36966 ft | 451 kts | 189° |
| 2026-05-01 13:49 | 29.91735 | -84.37665 | 36978 ft | 450 kts | 189° |
| 2026-05-01 13:50 | 29.85472 | -84.37722 | 36982 ft | 450 kts | 189° |
| 2026-05-01 13:50 | 29.79208 | -84.37779 | 36981 ft | 450 kts | 189° |
| 2026-05-01 13:50 | 29.76057 | -84.37525 | 36975 ft | 464 kts | 176° |
| 2026-05-01 13:51 | 29.72951 | -84.36286 | 36967 ft | 483 kts | 159° |
| 2026-05-01 13:51 | 29.70175 | -84.34109 | 36938 ft | 495 kts | 149° |
| 2026-05-01 13:51 | 29.67464 | -84.31655 | 36941 ft | 496 kts | 148° |
| 2026-05-01 13:52 | 29.62064 | -84.26688 | 36937 ft | 498 kts | 147° |
| 2026-05-01 13:52 | 29.56642 | -84.21702 | 36956 ft | 500 kts | 148° |
| 2026-05-01 13:53 | 29.51186 | -84.16739 | 36955 ft | 501 kts | 148° |
| 2026-05-01 13:53 | 29.43014 | -84.09327 | 36969 ft | 502 kts | 148° |
| 2026-05-01 13:54 | 29.37532 | -84.04363 | 36949 ft | 502 kts | 148° |
| 2026-05-01 13:54 | 29.32053 | -83.99402 | 36970 ft | 502 kts | 148° |
| 2026-05-01 13:55 | 29.26569 | -83.94440 | 36985 ft | 502 kts | 148° |
| 2026-05-01 13:55 | 29.21117 | -83.89525 | 36984 ft | 502 kts | 147° |
| 2026-05-01 13:56 | 29.15618 | -83.84577 | 36983 ft | 503 kts | 147° |
| 2026-05-01 13:56 | 29.10117 | -83.79623 | 36954 ft | 504 kts | 147° |
| 2026-05-01 13:57 | 29.05541 | -83.75502 | 36973 ft | 504 kts | 147° |
| 2026-05-01 13:57 | 28.99138 | -83.69758 | 36988 ft | 504 kts | 147° |
| 2026-05-01 13:58 | 28.93623 | -83.64823 | 36996 ft | 504 kts | 147° |
| 2026-05-01 13:58 | 28.88111 | -83.59887 | 36998 ft | 504 kts | 147° |
| 2026-05-01 13:59 | 28.82603 | -83.54951 | 37001 ft | 503 kts | 147° |
| 2026-05-01 13:59 | 28.77127 | -83.50067 | 36973 ft | 503 kts | 147° |
| 2026-05-01 14:00 | 28.71603 | -83.45156 | 36985 ft | 503 kts | 147° |
| 2026-05-01 14:00 | 28.66081 | -83.40249 | 36990 ft | 503 kts | 147° |
| 2026-05-01 14:01 | 28.60561 | -83.35345 | 36997 ft | 503 kts | 147° |
| 2026-05-01 14:01 | 28.55077 | -83.30472 | 36997 ft | 504 kts | 147° |
| 2026-05-01 14:02 | 28.49555 | -83.25571 | 36977 ft | 504 kts | 147° |
| 2026-05-01 14:02 | 28.44029 | -83.20681 | 36994 ft | 503 kts | 147° |
| 2026-05-01 14:03 | 28.38505 | -83.15800 | 37003 ft | 503 kts | 147° |
| 2026-05-01 14:03 | 28.32986 | -83.10931 | 36999 ft | 502 kts | 146° |
| 2026-05-01 14:04 | 28.27507 | -83.06099 | 37001 ft | 502 kts | 146° |
| 2026-05-01 14:04 | 28.22884 | -83.02027 | 37006 ft | 502 kts | 146° |
| 2026-05-01 14:05 | 28.16474 | -82.96383 | 36989 ft | 502 kts | 146° |
| 2026-05-01 14:05 | 28.10953 | -82.91539 | 37014 ft | 502 kts | 146° |
| 2026-05-01 14:06 | 28.05433 | -82.86700 | 37028 ft | 502 kts | 146° |
| 2026-05-01 14:06 | 27.99948 | -82.81895 | 37031 ft | 502 kts | 146° |
| 2026-05-01 14:07 | 27.94432 | -82.77070 | 37027 ft | 501 kts | 146° |
| 2026-05-01 14:08 | 27.86164 | -82.69851 | 37013 ft | 500 kts | 146° |
| 2026-05-01 14:08 | 27.81588 | -82.65868 | 37003 ft | 499 kts | 146° |
| 2026-05-01 14:09 | 27.75149 | -82.60281 | 37005 ft | 499 kts | 146° |
| 2026-05-01 14:09 | 27.70584 | -82.56304 | 37006 ft | 499 kts | 146° |
| 2026-05-01 14:10 | 27.64198 | -82.50750 | 37009 ft | 498 kts | 146° |
| 2026-05-01 14:10 | 27.58707 | -82.45987 | 37007 ft | 498 kts | 146° |
| 2026-05-01 14:11 | 27.53208 | -82.41222 | 37003 ft | 498 kts | 146° |
| 2026-05-01 14:11 | 27.44995 | -82.34123 | 37014 ft | 498 kts | 146° |
| 2026-05-01 14:12 | 27.39493 | -82.29380 | 37010 ft | 498 kts | 146° |
| 2026-05-01 14:12 | 27.34919 | -82.25439 | 37012 ft | 498 kts | 146° |
| 2026-05-01 14:13 | 27.29418 | -82.20702 | 37010 ft | 498 kts | 146° |
| 2026-05-01 14:13 | 27.23031 | -82.15202 | 36998 ft | 497 kts | 145° |
| 2026-05-01 14:14 | 27.18429 | -82.11248 | 37008 ft | 497 kts | 145° |
| 2026-05-01 14:14 | 27.12963 | -82.06562 | 37018 ft | 497 kts | 146° |
| 2026-05-01 14:15 | 27.07468 | -82.01857 | 37027 ft | 497 kts | 146° |
| 2026-05-01 14:15 | 27.01969 | -81.97152 | 37033 ft | 497 kts | 146° |
| 2026-05-01 14:16 | 26.95574 | -81.91689 | 37036 ft | 497 kts | 146° |
| 2026-05-01 14:16 | 26.90964 | -81.87749 | 37031 ft | 497 kts | 145° |
| 2026-05-01 14:17 | 26.85502 | -81.83092 | 37043 ft | 497 kts | 145° |
| 2026-05-01 14:17 | 26.79992 | -81.78407 | 37029 ft | 497 kts | 145° |
| 2026-05-01 14:18 | 26.74488 | -81.73728 | 37015 ft | 497 kts | 145° |
| 2026-05-01 14:18 | 26.68987 | -81.69051 | 37035 ft | 497 kts | 145° |
| 2026-05-01 14:19 | 26.63520 | -81.64405 | 37028 ft | 497 kts | 145° |
| 2026-05-01 14:19 | 26.58015 | -81.59743 | 37021 ft | 496 kts | 145° |
| 2026-05-01 14:20 | 26.49752 | -81.52765 | 37007 ft | 496 kts | 145° |
| 2026-05-01 14:21 | 26.44253 | -81.48125 | 36771 ft | 490 kts | 145° |
| 2026-05-01 14:21 | 26.41555 | -81.45850 | 36520 ft | 484 kts | 145° |
| 2026-05-01 14:21 | 26.38886 | -81.43598 | 36271 ft | 480 kts | 145° |
| 2026-05-01 14:22 | 26.33634 | -81.39167 | 35766 ft | 473 kts | 145° |
| 2026-05-01 14:22 | 26.30997 | -81.36947 | 34976 ft | 477 kts | 144° |
| 2026-05-01 14:22 | 26.28370 | -81.34738 | 34654 ft | 469 kts | 144° |
| 2026-05-01 14:22 | 26.25782 | -81.32564 | 34244 ft | 463 kts | 144° |
| 2026-05-01 14:23 | 26.23227 | -81.30414 | 33801 ft | 458 kts | 144° |
| 2026-05-01 14:23 | 26.20700 | -81.28284 | 33303 ft | 454 kts | 144° |
| 2026-05-01 14:23 | 26.18189 | -81.26172 | 32819 ft | 450 kts | 144° |
| 2026-05-01 14:23 | 26.15701 | -81.24085 | 32328 ft | 447 kts | 145° |
| 2026-05-01 14:24 | 26.13228 | -81.22012 | 31841 ft | 444 kts | 145° |
| 2026-05-01 14:24 | 26.10807 | -81.19985 | 31261 ft | 438 kts | 146° |
| 2026-05-01 14:24 | 26.08384 | -81.17960 | 30459 ft | 434 kts | 146° |
| 2026-05-01 14:24 | 26.05980 | -81.15952 | 29613 ft | 430 kts | 146° |
| 2026-05-01 14:25 | 26.03612 | -81.13968 | 28764 ft | 425 kts | 146° |
| 2026-05-01 14:25 | 26.01256 | -81.11994 | 27956 ft | 421 kts | 146° |
| 2026-05-01 14:25 | 25.98931 | -81.10049 | 27162 ft | 416 kts | 146° |
| 2026-05-01 14:25 | 25.96629 | -81.08127 | 26405 ft | 411 kts | 146° |
| 2026-05-01 14:26 | 25.94360 | -81.06230 | 25671 ft | 406 kts | 145° |
| 2026-05-01 14:26 | 25.90703 | -81.01524 | 24235 ft | 404 kts | 120° |
| 2026-05-01 14:26 | 25.89689 | -80.98650 | 23078 ft | 411 kts | 101° |
| 2026-05-01 14:27 | 25.89512 | -80.95468 | 21759 ft | 416 kts | 85° |
| 2026-05-01 14:27 | 25.89721 | -80.92227 | 20340 ft | 426 kts | 83° |
| 2026-05-01 14:27 | 25.89957 | -80.88913 | 18906 ft | 435 kts | 83° |
| 2026-05-01 14:28 | 25.90425 | -80.82111 | 15893 ft | 443 kts | 83° |
| 2026-05-01 14:28 | 25.90691 | -80.78716 | 14773 ft | 442 kts | 83° |
| 2026-05-01 14:28 | 25.90977 | -80.75333 | 14228 ft | 437 kts | 83° |
| 2026-05-01 14:28 | 25.91273 | -80.71991 | 13657 ft | 432 kts | 83° |
| 2026-05-01 14:29 | 25.91578 | -80.68691 | 13036 ft | 428 kts | 83° |
| 2026-05-01 14:29 | 25.91886 | -80.65468 | 12419 ft | 423 kts | 83° |
| 2026-05-01 14:30 | 25.92869 | -80.55902 | 10544 ft | 408 kts | 83° |
| 2026-05-01 14:30 | 25.93210 | -80.52811 | 10244 ft | 394 kts | 83° |
| 2026-05-01 14:30 | 25.93537 | -80.49877 | 10113 ft | 369 kts | 83° |
| 2026-05-01 14:31 | 25.94124 | -80.44663 | 9820 ft | 316 kts | 83° |
| 2026-05-01 14:31 | 25.94391 | -80.42284 | 9308 ft | 307 kts | 83° |
| 2026-05-01 14:31 | 25.94647 | -80.39971 | 8705 ft | 303 kts | 82° |
| 2026-05-01 14:31 | 25.94903 | -80.37662 | 8088 ft | 299 kts | 83° |
| 2026-05-01 14:32 | 25.95160 | -80.35385 | 7488 ft | 296 kts | 83° |
| 2026-05-01 14:32 | 25.95417 | -80.33132 | 6886 ft | 292 kts | 83° |
| 2026-05-01 14:32 | 25.95675 | -80.30907 | 6304 ft | 291 kts | 83° |
| 2026-05-01 14:32 | 25.95935 | -80.28693 | 5952 ft | 288 kts | 83° |
| 2026-05-01 14:33 | 25.96200 | -80.26485 | 5510 ft | 288 kts | 83° |
| 2026-05-01 14:33 | 25.96469 | -80.24286 | 5083 ft | 288 kts | 83° |
| 2026-05-01 14:33 | 25.96745 | -80.22083 | 4640 ft | 287 kts | 83° |
| 2026-05-01 14:33 | 25.96892 | -80.19888 | 4189 ft | 284 kts | 98° |
| 2026-05-01 14:34 | 25.96257 | -80.17846 | 3747 ft | 280 kts | 125° |
| 2026-05-01 14:34 | 25.94929 | -80.16290 | 3319 ft | 277 kts | 141° |
| 2026-05-01 14:34 | 25.93465 | -80.14952 | 2879 ft | 276 kts | 142° |
| 2026-05-01 14:34 | 25.91976 | -80.13621 | 2428 ft | 274 kts | 142° |
| 2026-05-01 14:35 | 25.90487 | -80.12307 | 2067 ft | 271 kts | 142° |
| 2026-05-01 14:35 | 25.89047 | -80.11039 | 2000 ft | 255 kts | 142° |
| 2026-05-01 14:35 | 25.87712 | -80.09861 | 2002 ft | 236 kts | 142° |
| 2026-05-01 14:35 | 25.86473 | -80.08765 | 2006 ft | 220 kts | 142° |
| 2026-05-01 14:36 | 25.85318 | -80.07745 | 2005 ft | 205 kts | 142° |
| 2026-05-01 14:36 | 25.84244 | -80.06797 | 2004 ft | 191 kts | 142° |
| 2026-05-01 14:36 | 25.83153 | -80.06017 | 1990 ft | 184 kts | 166° |
| 2026-05-01 14:36 | 25.81922 | -80.06104 | 2003 ft | 180 kts | 208° |
| 2026-05-01 14:37 | 25.81089 | -80.07078 | 2005 ft | 182 kts | 251° |
| 2026-05-01 14:37 | 25.80955 | -80.08515 | 2038 ft | 192 kts | 266° |
| 2026-05-01 14:37 | 25.80900 | -80.09910 | 2029 ft | 169 kts | 265° |
| 2026-05-01 14:37 | 25.80846 | -80.11141 | 1995 ft | 152 kts | 265° |
| 2026-05-01 14:38 | 25.80798 | -80.12287 | 2014 ft | 147 kts | 265° |
| 2026-05-01 14:38 | 25.80752 | -80.13405 | 2009 ft | 144 kts | 265° |
| 2026-05-01 14:38 | 25.80708 | -80.14507 | 2000 ft | 142 kts | 265° |
| 2026-05-01 14:38 | 25.80663 | -80.15606 | 1914 ft | 143 kts | 265° |
| 2026-05-01 14:39 | 25.80618 | -80.16705 | 1771 ft | 142 kts | 265° |
| 2026-05-01 14:39 | 25.80574 | -80.17794 | 1603 ft | 141 kts | 264° |
| 2026-05-01 14:39 | 25.80531 | -80.18866 | 1435 ft | 141 kts | 265° |
| 2026-05-01 14:39 | 25.80487 | -80.19949 | 1235 ft | 140 kts | 266° |
| 2026-05-01 14:40 | 25.80443 | -80.21035 | 1064 ft | 140 kts | 265° |
| 2026-05-01 14:40 | 25.80401 | -80.22122 | 882 ft | 140 kts | 266° |
| 2026-05-01 14:40 | 25.80370 | -80.23200 | 710 ft | 139 kts | 265° |
| 2026-05-01 14:40 | 25.80310 | -80.24272 | 527 ft | 138 kts | 265° |
| 2026-05-01 14:41 | 25.80264 | -80.25339 | 370 ft | 137 kts | 266° |
| 2026-05-01 14:41 | 25.80222 | -80.26405 | 205 ft | 137 kts | 266° |
| 2026-05-01 14:41 | 25.80178 | -80.27453 | 52 ft | 134 kts | 266° |
| 2026-05-01 14:41 | 25.80136 | -80.28470 | 30 ft | 129 kts | 266° |
| 2026-05-01 14:42 | 25.80096 | -80.29252 | 17 ft | 49 kts | 266° |
| 2026-05-01 14:42 | 25.80084 | -80.29462 | 14 ft | 1 kts | 258° |
| 2026-05-01 14:42 | 25.80076 | -80.29480 | 15 ft | 7 kts | 238° |
| 2026-05-01 14:42 | 25.80031 | -80.29506 | 14 ft | 6 kts | 182° |
| 2026-05-01 14:43 | 25.80000 | -80.29487 | 14 ft | 4 kts | 127° |
| 2026-05-01 14:43 | 25.79993 | -80.29463 | 14 ft | 3 kts | 99° |
| 2026-05-01 14:43 | 25.79992 | -80.29447 | 15 ft | 1 kts | 92° |
| 2026-05-01 14:43 | 25.79992 | -80.29438 | 17 ft | 3 kts | 90° |
| 2026-05-01 14:44 | 25.79992 | -80.29398 | 15 ft | 8 kts | 89° |
| 2026-05-01 14:44 | 25.79998 | -80.29226 | 16 ft | 11 kts | 88° |
| 2026-05-01 14:44 | 25.80001 | -80.29143 | 16 ft | 10 kts | 88° |
| 2026-05-01 14:45 | 25.80004 | -80.29068 | 16 ft | 9 kts | 87° |
| 2026-05-01 14:45 | 25.80012 | -80.28896 | 16 ft | 16 kts | 87° |
| 2026-05-01 14:45 | 25.80017 | -80.28764 | 17 ft | 20 kts | 88° |
| 2026-05-01 14:46 | 25.80025 | -80.28594 | 16 ft | 25 kts | 88° |
| 2026-05-01 14:46 | 25.79956 | -80.28274 | 16 ft | 13 kts | 119° |
| 2026-05-01 14:46 | 25.79903 | -80.28200 | 15 ft | 11 kts | 129° |
| 2026-05-01 14:47 | 25.79840 | -80.28171 | 15 ft | 9 kts | 178° |
| 2026-05-01 14:47 | 25.79832 | -80.28171 | 15 ft | 0 kts | 179° |